Time;durP1;ratioP1;P1;durP2;ratioP2;P2;SDS_P1;SDS_P2;PMS_P1;PMS_P2;Temp;Humidity;BMP_temperature;BMP_pressure;BME280_temperature;BME280_humidity;BME280_pressure;Samples;Min_cycle;Max_cycle;Signal;HPM_P1;HPM_P2
2023/07/20 00:01:19;;;;;;;7.65;5.57;;;;;;;;;;5033092;28;20026;-64
2023/07/20 00:03:54;;;;;;;11.07;5.40;;;;;;;;;;5049244;28;20029;-62
2023/07/20 00:06:24;;;;;;;9.52;5.53;;;;;;;;;;5033297;28;20044;-62
2023/07/20 00:08:53;;;;;;;7.87;5.30;;;;;;;;;;5033575;28;20069;-63
2023/07/20 00:11:19;;;;;;;8.35;5.57;;;;;;;;;;5032446;28;20289;-62
2023/07/20 00:13:44;;;;;;;10.45;5.60;;;;;;;;;;5060867;28;20029;-63
2023/07/20 00:16:10;;;;;;;7.45;5.20;;;;;;;;;;5063453;28;20025;-63
2023/07/20 00:18:35;;;;;;;9.00;5.13;;;;;;;;;;5054574;28;20025;-63
2023/07/20 00:21:01;;;;;;;8.90;5.68;;;;;;;;;;5053523;28;20029;-62
2023/07/20 00:23:27;;;;;;;9.35;5.75;;;;;;;;;;5053464;28;20036;-63
2023/07/20 00:25:53;;;;;;;11.00;5.00;;;;;;;;;;5053954;28;20107;-61
2023/07/20 00:28:18;;;;;;;9.93;5.63;;;;;;;;;;5051218;28;20131;-62
2023/07/20 00:30:43;;;;;;;6.97;5.10;;;;;;;;;;5053619;28;20127;-61
2023/07/20 00:33:11;;;;;;;10.23;5.57;;;;;;;;;;5048938;28;20465;-62
2023/07/20 00:35:37;;;;;;;6.30;4.90;;;;;;;;;;5033502;28;20044;-61
2023/07/20 00:38:03;;;;;;;7.20;5.22;;;;;;;;;;5033195;28;20382;-62
2023/07/20 00:40:35;;;;;;;7.22;5.32;;;;;;;;;;5055428;28;20458;-62
2023/07/20 00:43:01;;;;;;;9.98;4.90;;;;;;;;;;5072201;28;20069;-64
2023/07/20 00:45:27;;;;;;;9.45;5.30;;;;;;;;;;5034152;28;20120;-62
2023/07/20 00:47:53;;;;;;;8.35;5.00;;;;;;;;;;5034418;28;20033;-61
2023/07/20 00:50:18;;;;;;;7.55;5.00;;;;;;;;;;5032943;28;20541;-61
2023/07/20 00:52:44;;;;;;;8.18;5.30;;;;;;;;;;5033910;28;20035;-61
2023/07/20 00:55:10;;;;;;;10.02;4.97;;;;;;;;;;5042242;28;20079;-62
2023/07/20 00:57:36;;;;;;;9.18;5.20;;;;;;;;;;5052909;28;20041;-61
2023/07/20 01:00:02;;;;;;;9.63;4.97;;;;;;;;;;5051353;28;20033;-62
2023/07/20 01:02:27;;;;;;;8.25;5.07;;;;;;;;;;5048981;28;20036;-62
2023/07/20 01:04:53;;;;;;;8.40;5.63;;;;;;;;;;5055206;28;20047;-61
2023/07/20 01:07:35;;;;;;;8.48;5.25;;;;;;;;;;5059575;28;20121;-61
2023/07/20 01:10:15;;;;;;;7.80;4.80;;;;;;;;;;5073189;28;20043;-63
2023/07/20 01:12:46;;;;;;;8.57;4.70;;;;;;;;;;5054371;28;20362;-61
2023/07/20 01:15:12;;;;;;;8.15;5.32;;;;;;;;;;5032790;28;20026;-61
2023/07/20 01:17:38;;;;;;;10.75;5.20;;;;;;;;;;5033687;28;20052;-61
2023/07/20 01:20:10;;;;;;;9.25;5.15;;;;;;;;;;5049963;28;20061;-61
2023/07/20 01:23:07;;;;;;;8.50;5.10;;;;;;;;;;5051805;28;20036;-61
2023/07/20 01:26:06;;;;;;;10.60;5.07;;;;;;;;;;5052123;28;20091;-61
2023/07/20 01:28:56;;;;;;;9.43;5.10;;;;;;;;;;5053515;28;20108;-61
2023/07/20 01:31:24;;;;;;;7.72;5.35;;;;;;;;;;5052394;28;20028;-61
2023/07/20 01:33:53;;;;;;;8.73;5.00;;;;;;;;;;5052090;28;20109;-61
2023/07/20 01:36:21;;;;;;;8.13;5.53;;;;;;;;;;5041330;28;20149;-61
2023/07/20 01:38:47;;;;;;;12.85;5.65;;;;;;;;;;5033154;28;20041;-61
2023/07/20 01:41:14;;;;;;;8.05;4.97;;;;;;;;;;5067382;28;20485;-62
2023/07/20 01:43:39;;;;;;;8.02;5.05;;;;;;;;;;5072716;28;20055;-62
2023/07/20 01:46:04;;;;;;;7.57;4.70;;;;;;;;;;5071642;28;20024;-62
2023/07/20 01:48:31;;;;;;;9.35;5.40;;;;;;;;;;5072882;28;20025;-62
2023/07/20 01:50:56;;;;;;;11.48;5.35;;;;;;;;;;5053071;28;20389;-61
2023/07/20 01:53:22;;;;;;;10.60;5.57;;;;;;;;;;5051923;28;20469;-62
2023/07/20 01:55:47;;;;;;;8.20;5.50;;;;;;;;;;5051491;28;20112;-63
2023/07/20 01:58:13;;;;;;;9.27;5.45;;;;;;;;;;5051550;28;20025;-63
2023/07/20 02:00:39;;;;;;;12.15;5.97;;;;;;;;;;5059407;28;20596;-62
2023/07/20 02:03:05;;;;;;;8.48;5.57;;;;;;;;;;5067743;28;20035;-64
2023/07/20 02:05:30;;;;;;;11.88;5.90;;;;;;;;;;5032396;28;20374;-62
2023/07/20 02:07:56;;;;;;;7.85;5.88;;;;;;;;;;5032571;28;20374;-61
2023/07/20 02:10:22;;;;;;;13.48;7.30;;;;;;;;;;5031491;28;20532;-62
2023/07/20 02:12:47;;;;;;;9.90;7.25;;;;;;;;;;5031162;28;20029;-62
2023/07/20 02:15:16;;;;;;;11.15;7.28;;;;;;;;;;5037761;28;20028;-63
2023/07/20 02:17:41;;;;;;;11.10;7.28;;;;;;;;;;5050385;28;20030;-62
2023/07/20 02:20:11;;;;;;;13.15;7.65;;;;;;;;;;5037189;28;20030;-63
2023/07/20 02:22:37;;;;;;;13.85;8.00;;;;;;;;;;5031805;28;20030;-62
2023/07/20 02:25:04;;;;;;;14.18;8.20;;;;;;;;;;5073462;28;20028;-65
2023/07/20 02:27:30;;;;;;;15.15;8.85;;;;;;;;;;5061735;28;20029;-63
2023/07/20 02:29:56;;;;;;;16.38;9.55;;;;;;;;;;5051846;28;20035;-62
2023/07/20 02:32:21;;;;;;;14.35;9.30;;;;;;;;;;5049962;28;20779;-63
2023/07/20 02:34:50;;;;;;;14.50;8.95;;;;;;;;;;5052352;28;20081;-61
2023/07/20 02:37:16;;;;;;;17.42;9.65;;;;;;;;;;5051205;28;20075;-61
2023/07/20 02:39:42;;;;;;;14.73;10.10;;;;;;;;;;5048330;28;20045;-61
2023/07/20 02:42:07;;;;;;;12.82;9.65;;;;;;;;;;5051013;28;20033;-61
2023/07/20 02:44:33;;;;;;;15.93;10.10;;;;;;;;;;5051673;28;20499;-61
2023/07/20 02:46:58;;;;;;;17.25;10.52;;;;;;;;;;5051844;28;20025;-62
2023/07/20 02:49:23;;;;;;;17.20;10.45;;;;;;;;;;5050875;28;20052;-61
2023/07/20 02:51:49;;;;;;;21.60;11.25;;;;;;;;;;5051724;28;20060;-63
2023/07/20 02:54:15;;;;;;;18.77;11.88;;;;;;;;;;5047211;28;20021;-62
2023/07/20 02:56:40;;;;;;;22.15;13.13;;;;;;;;;;5051607;28;20029;-63
2023/07/20 02:59:06;;;;;;;19.40;13.05;;;;;;;;;;5051152;28;20024;-62
2023/07/20 03:01:31;;;;;;;21.67;13.07;;;;;;;;;;5051413;28;20033;-62
2023/07/20 03:03:57;;;;;;;21.48;13.65;;;;;;;;;;5051287;28;20029;-62
2023/07/20 03:06:22;;;;;;;21.15;14.00;;;;;;;;;;5050767;28;20032;-62
2023/07/20 03:08:48;;;;;;;24.98;15.77;;;;;;;;;;5054224;28;20035;-63
2023/07/20 03:11:17;;;;;;;23.55;15.23;;;;;;;;;;5070494;28;20037;-62
2023/07/20 03:13:43;;;;;;;28.27;16.48;;;;;;;;;;5070232;28;20071;-62
2023/07/20 03:16:11;;;;;;;26.60;16.98;;;;;;;;;;5070796;28;20060;-63
2023/07/20 03:18:39;;;;;;;28.45;16.60;;;;;;;;;;5055841;28;20036;-62
2023/07/20 03:21:13;;;;;;;29.83;18.55;;;;;;;;;;5055342;28;20028;-62
2023/07/20 03:23:39;;;;;;;30.23;19.65;;;;;;;;;;5071200;28;20464;-62
2023/07/20 03:26:08;;;;;;;30.85;18.77;;;;;;;;;;5044886;28;20045;-63
2023/07/20 03:28:34;;;;;;;32.35;19.00;;;;;;;;;;5067033;28;20032;-61
2023/07/20 03:30:59;;;;;;;34.65;19.13;;;;;;;;;;5066129;28;20032;-62
2023/07/20 03:33:27;;;;;;;33.45;19.95;;;;;;;;;;5050403;28;20086;-61
2023/07/20 03:35:53;;;;;;;31.10;19.17;;;;;;;;;;5043332;28;20446;-62
2023/07/20 03:38:18;;;;;;;31.98;19.98;;;;;;;;;;5030891;28;20068;-62
2023/07/20 03:41:11;;;;;;;31.05;19.45;;;;;;;;;;5031072;28;20390;-62
2023/07/20 03:43:37;;;;;;;30.73;19.45;;;;;;;;;;5032388;28;20045;-62
2023/07/20 03:46:06;;;;;;;31.42;19.80;;;;;;;;;;5031392;28;20516;-62
2023/07/20 03:48:32;;;;;;;33.42;20.08;;;;;;;;;;5050033;28;20029;-62
2023/07/20 03:50:58;;;;;;;35.40;20.23;;;;;;;;;;5071510;28;20059;-61
2023/07/20 03:53:23;;;;;;;35.63;20.33;;;;;;;;;;5070250;28;20029;-62
2023/07/20 03:55:51;;;;;;;33.75;21.42;;;;;;;;;;5070143;28;20040;-62
2023/07/20 03:58:18;;;;;;;33.40;20.83;;;;;;;;;;5045587;28;20478;-62
2023/07/20 04:00:45;;;;;;;32.95;19.55;;;;;;;;;;5051750;28;20458;-62
2023/07/20 04:03:11;;;;;;;31.55;19.08;;;;;;;;;;5048959;28;20029;-63
2023/07/20 04:05:36;;;;;;;29.30;19.10;;;;;;;;;;5048279;28;20037;-61
2023/07/20 04:08:01;;;;;;;27.67;17.52;;;;;;;;;;5051888;28;20033;-61
2023/07/20 04:10:27;;;;;;;25.42;16.92;;;;;;;;;;5057102;28;20527;-62
2023/07/20 04:12:55;;;;;;;29.10;17.30;;;;;;;;;;5049814;28;20029;-62
2023/07/20 04:15:20;;;;;;;22.45;14.77;;;;;;;;;;5034797;28;20031;-61
2023/07/20 04:17:46;;;;;;;21.05;14.00;;;;;;;;;;5035618;28;20447;-62
2023/07/20 04:20:14;;;;;;;20.83;13.82;;;;;;;;;;5034652;28;20041;-63
2023/07/20 04:22:39;;;;;;;25.55;14.93;;;;;;;;;;5034792;28;20057;-62
2023/07/20 04:25:05;;;;;;;20.67;15.23;;;;;;;;;;5033812;28;20049;-62
2023/07/20 04:27:30;;;;;;;20.80;14.60;;;;;;;;;;5053543;28;20056;-62
2023/07/20 04:29:57;;;;;;;22.42;14.07;;;;;;;;;;5061753;28;20036;-62
2023/07/20 04:32:25;;;;;;;20.50;14.15;;;;;;;;;;5053770;28;20078;-63
2023/07/20 04:34:51;;;;;;;18.88;12.77;;;;;;;;;;5034330;28;20033;-63
2023/07/20 04:37:16;;;;;;;19.48;13.63;;;;;;;;;;5052772;28;20040;-62
2023/07/20 04:39:41;;;;;;;21.25;14.40;;;;;;;;;;5057364;28;20032;-62
2023/07/20 04:42:07;;;;;;;21.17;14.43;;;;;;;;;;5077535;28;20369;-62
2023/07/20 04:44:32;;;;;;;22.98;14.27;;;;;;;;;;5060156;28;20603;-62
2023/07/20 04:46:58;;;;;;;21.80;14.05;;;;;;;;;;5054537;28;20474;-62
2023/07/20 04:49:23;;;;;;;21.70;14.05;;;;;;;;;;5052906;28;20033;-63
2023/07/20 04:51:48;;;;;;;20.88;14.43;;;;;;;;;;5054050;28;20403;-62
2023/07/20 04:54:14;;;;;;;19.83;14.25;;;;;;;;;;5053263;28;20040;-65
2023/07/20 04:56:40;;;;;;;23.38;15.18;;;;;;;;;;5054482;28;20028;-64
2023/07/20 04:59:05;;;;;;;24.75;15.30;;;;;;;;;;5052546;28;20436;-62
2023/07/20 05:01:30;;;;;;;21.85;14.48;;;;;;;;;;5052621;28;20209;-62
2023/07/20 05:03:56;;;;;;;20.75;14.68;;;;;;;;;;5053865;28;20115;-62
2023/07/20 05:06:21;;;;;;;22.38;14.38;;;;;;;;;;5052864;28;20107;-63
2023/07/20 05:08:47;;;;;;;21.40;13.38;;;;;;;;;;5064417;28;20028;-62
2023/07/20 05:11:12;;;;;;;19.23;12.90;;;;;;;;;;5053546;28;20031;-66
2023/07/20 05:13:38;;;;;;;18.45;11.25;;;;;;;;;;5056339;28;20033;-62
2023/07/20 05:16:03;;;;;;;13.48;9.82;;;;;;;;;;5053673;28;20036;-62
2023/07/20 05:18:29;;;;;;;13.13;9.25;;;;;;;;;;5051932;28;20074;-63
2023/07/20 05:20:55;;;;;;;14.43;9.90;;;;;;;;;;5050383;28;20450;-65
2023/07/20 05:23:21;;;;;;;11.38;8.40;;;;;;;;;;5046751;28;20069;-64
2023/07/20 05:25:46;;;;;;;11.95;9.10;;;;;;;;;;5053445;28;20028;-63
2023/07/20 05:28:12;;;;;;;11.82;8.52;;;;;;;;;;5062730;28;20097;-63
2023/07/20 05:30:37;;;;;;;11.18;8.35;;;;;;;;;;5060938;28;20032;-64
2023/07/20 05:33:03;;;;;;;10.35;8.02;;;;;;;;;;5051169;28;20487;-64
2023/07/20 05:35:28;;;;;;;11.68;7.78;;;;;;;;;;5052444;28;20029;-64
2023/07/20 05:37:54;;;;;;;11.13;6.97;;;;;;;;;;5059628;28;20029;-62
2023/07/20 05:40:20;;;;;;;9.63;6.75;;;;;;;;;;5051826;28;20466;-63
2023/07/20 05:42:47;;;;;;;8.00;6.70;;;;;;;;;;5070005;28;20054;-62
2023/07/20 05:45:13;;;;;;;9.27;6.90;;;;;;;;;;5061195;28;20044;-61
2023/07/20 05:47:39;;;;;;;9.90;6.50;;;;;;;;;;5062934;28;20063;-61
2023/07/20 05:50:05;;;;;;;9.10;6.70;;;;;;;;;;5048909;28;20064;-62
2023/07/20 05:52:30;;;;;;;9.57;6.90;;;;;;;;;;5052240;28;20040;-62
2023/07/20 05:54:55;;;;;;;12.40;7.28;;;;;;;;;;5052870;28;20499;-61
2023/07/20 05:57:21;;;;;;;10.20;6.82;;;;;;;;;;5043974;28;20079;-62
2023/07/20 05:59:46;;;;;;;9.07;6.43;;;;;;;;;;5043023;28;20540;-63
2023/07/20 06:02:12;;;;;;;7.30;5.60;;;;;;;;;;5052833;28;20036;-62
2023/07/20 06:04:39;;;;;;;8.23;5.80;;;;;;;;;;5051801;28;20584;-61
2023/07/20 06:07:04;;;;;;;8.48;5.07;;;;;;;;;;5052761;28;20535;-62
2023/07/20 06:09:30;;;;;;;7.45;5.47;;;;;;;;;;5051772;28;20028;-62
2023/07/20 06:11:56;;;;;;;8.00;5.43;;;;;;;;;;5050074;28;20039;-61
2023/07/20 06:14:22;;;;;;;7.78;5.07;;;;;;;;;;5049002;28;20037;-62
2023/07/20 06:16:47;;;;;;;7.30;5.25;;;;;;;;;;5052296;28;20032;-62
2023/07/20 06:19:13;;;;;;;7.28;5.28;;;;;;;;;;5050316;28;20044;-61
2023/07/20 06:21:39;;;;;;;7.10;4.50;;;;;;;;;;5044669;28;20027;-61
2023/07/20 06:24:04;;;;;;;6.47;4.30;;;;;;;;;;5032470;28;20029;-61
2023/07/20 06:26:30;;;;;;;5.95;4.53;;;;;;;;;;5044352;28;20401;-60
2023/07/20 06:28:56;;;;;;;5.20;4.13;;;;;;;;;;5072322;28;20067;-62
2023/07/20 06:31:21;;;;;;;5.22;4.20;;;;;;;;;;5054070;28;20124;-62
2023/07/20 06:33:47;;;;;;;5.80;4.00;;;;;;;;;;5054136;28;20120;-65
2023/07/20 06:36:12;;;;;;;5.00;3.70;;;;;;;;;;5058471;28;20033;-62
2023/07/20 06:38:38;;;;;;;4.68;3.38;;;;;;;;;;5051286;28;20025;-62
2023/07/20 06:41:03;;;;;;;5.32;3.50;;;;;;;;;;5050852;28;21227;-62
2023/07/20 06:43:29;;;;;;;4.07;3.10;;;;;;;;;;5045674;28;20054;-62
2023/07/20 06:45:54;;;;;;;6.40;3.78;;;;;;;;;;5051498;28;20037;-62
2023/07/20 06:48:20;;;;;;;4.88;3.60;;;;;;;;;;5042002;28;20026;-65
2023/07/20 06:50:46;;;;;;;6.85;3.67;;;;;;;;;;5042961;28;20033;-63
2023/07/20 06:53:11;;;;;;;6.68;3.80;;;;;;;;;;5052388;28;20400;-62
2023/07/20 06:55:37;;;;;;;4.75;3.80;;;;;;;;;;5062293;28;20075;-61
2023/07/20 06:58:02;;;;;;;4.95;3.55;;;;;;;;;;5052225;28;20032;-61
2023/07/20 07:00:28;;;;;;;4.78;3.53;;;;;;;;;;5050726;28;20132;-61
2023/07/20 07:02:53;;;;;;;4.90;3.47;;;;;;;;;;5050617;28;20029;-62
2023/07/20 07:05:19;;;;;;;5.50;3.90;;;;;;;;;;5045690;28;20029;-63
2023/07/20 07:07:44;;;;;;;7.22;3.60;;;;;;;;;;5031008;28;20374;-61
2023/07/20 07:10:10;;;;;;;5.00;3.50;;;;;;;;;;5040140;28;20118;-61
2023/07/20 07:12:35;;;;;;;4.40;3.40;;;;;;;;;;5049370;28;20134;-61
2023/07/20 07:15:06;;;;;;;6.00;3.70;;;;;;;;;;5050764;28;20021;-61
2023/07/20 07:17:32;;;;;;;6.97;3.80;;;;;;;;;;5049965;28;20188;-61
2023/07/20 07:19:58;;;;;;;5.63;3.50;;;;;;;;;;5049740;28;20482;-63
2023/07/20 07:22:24;;;;;;;5.28;3.40;;;;;;;;;;5069327;28;20040;-65
2023/07/20 07:24:49;;;;;;;4.47;3.20;;;;;;;;;;5053091;28;20032;-63
2023/07/20 07:27:18;;;;;;;5.13;3.35;;;;;;;;;;5051729;28;20056;-63
2023/07/20 07:29:44;;;;;;;5.05;3.35;;;;;;;;;;5050522;28;20025;-64
2023/07/20 07:32:10;;;;;;;4.53;3.00;;;;;;;;;;5050428;28;20027;-62
2023/07/20 07:34:36;;;;;;;3.63;2.75;;;;;;;;;;5049728;28;20111;-61
2023/07/20 07:37:06;;;;;;;3.65;2.35;;;;;;;;;;5071702;28;20079;-63
2023/07/20 07:39:31;;;;;;;3.92;2.70;;;;;;;;;;5050721;28;20098;-62
2023/07/20 07:41:57;;;;;;;4.85;2.53;;;;;;;;;;5047999;28;20041;-61
2023/07/20 07:44:23;;;;;;;3.10;2.20;;;;;;;;;;5034556;28;20057;-63
2023/07/20 07:46:48;;;;;;;4.22;2.28;;;;;;;;;;5055319;28;20033;-63
2023/07/20 07:49:14;;;;;;;2.78;1.80;;;;;;;;;;5050421;28;20022;-62
2023/07/20 07:51:40;;;;;;;3.83;1.92;;;;;;;;;;5074195;28;20528;-62
2023/07/20 07:54:05;;;;;;;1.95;1.40;;;;;;;;;;5074898;28;20096;-62
2023/07/20 07:56:30;;;;;;;1.90;1.45;;;;;;;;;;5063641;28;20060;-62
2023/07/20 07:58:56;;;;;;;2.78;1.40;;;;;;;;;;5055092;28;20103;-63
2023/07/20 08:01:22;;;;;;;3.65;2.00;;;;;;;;;;5048321;28;20053;-64
2023/07/20 08:03:47;;;;;;;5.22;1.65;;;;;;;;;;5038520;28;20025;-61
2023/07/20 08:06:15;;;;;;;1.50;1.40;;;;;;;;;;5053577;28;20025;-62
2023/07/20 08:08:42;;;;;;;1.42;1.25;;;;;;;;;;5053963;28;20107;-63
2023/07/20 08:11:08;;;;;;;5.68;1.70;;;;;;;;;;5054700;28;20028;-62
2023/07/20 08:13:34;;;;;;;2.67;1.70;;;;;;;;;;5054028;28;20511;-62
2023/07/20 08:15:59;;;;;;;2.35;1.60;;;;;;;;;;5050262;28;20029;-63
2023/07/20 08:18:24;;;;;;;1.88;1.50;;;;;;;;;;5053841;28;20076;-62
2023/07/20 08:20:50;;;;;;;2.47;1.50;;;;;;;;;;5054056;28;20029;-62
2023/07/20 08:23:16;;;;;;;3.20;1.50;;;;;;;;;;5056761;28;20040;-62
2023/07/20 08:25:43;;;;;;;1.70;1.40;;;;;;;;;;5053209;28;20367;-62
2023/07/20 08:28:15;;;;;;;1.83;1.40;;;;;;;;;;5052418;28;20029;-62
2023/07/20 08:30:45;;;;;;;1.52;1.10;;;;;;;;;;5063696;28;20126;-62
2023/07/20 08:33:13;;;;;;;2.00;1.10;;;;;;;;;;5054316;28;20169;-62
2023/07/20 08:35:39;;;;;;;1.30;1.20;;;;;;;;;;5053256;28;20029;-63
2023/07/20 08:38:04;;;;;;;1.20;1.10;;;;;;;;;;5048542;28;20040;-62
2023/07/20 08:40:33;;;;;;;2.78;1.15;;;;;;;;;;5041065;28;20033;-63
2023/07/20 08:43:02;;;;;;;3.15;2.42;;;;;;;;;;5053997;28;20521;-62
2023/07/20 08:45:29;;;;;;;7.25;3.78;;;;;;;;;;5052702;28;20488;-62
2023/07/20 08:47:56;;;;;;;4.40;2.80;;;;;;;;;;5053346;28;20033;-63
2023/07/20 08:50:22;;;;;;;3.03;2.10;;;;;;;;;;5053165;28;20032;-65
2023/07/20 08:52:53;;;;;;;2.75;1.95;;;;;;;;;;5043190;28;20044;-63
2023/07/20 08:55:22;;;;;;;5.15;1.77;;;;;;;;;;5044802;28;20037;-64
2023/07/20 08:57:50;;;;;;;2.85;1.55;;;;;;;;;;5055076;28;20028;-62
2023/07/20 09:00:19;;;;;;;1.98;1.50;;;;;;;;;;5053443;28;20041;-63
2023/07/20 09:02:45;;;;;;;2.85;1.40;;;;;;;;;;5053130;28;20086;-62
2023/07/20 09:05:13;;;;;;;2.30;1.50;;;;;;;;;;5053797;28;20065;-64
2023/07/20 09:07:40;;;;;;;3.60;2.20;;;;;;;;;;5052676;28;20041;-62
2023/07/20 09:10:06;;;;;;;4.25;2.20;;;;;;;;;;5051754;28;20108;-63
2023/07/20 09:12:39;;;;;;;2.63;2.35;;;;;;;;;;5032441;28;20033;-63
2023/07/20 09:15:06;;;;;;;3.67;2.60;;;;;;;;;;5042525;28;20491;-62
2023/07/20 09:17:34;;;;;;;3.67;2.42;;;;;;;;;;5048739;28;20533;-61
2023/07/20 09:20:08;;;;;;;3.95;2.20;;;;;;;;;;5044615;28;20108;-62
2023/07/20 09:22:34;;;;;;;5.15;3.03;;;;;;;;;;5040458;28;20406;-62
2023/07/20 09:24:59;;;;;;;5.55;2.90;;;;;;;;;;5066106;28;20063;-62
2023/07/20 09:27:42;;;;;;;4.28;2.83;;;;;;;;;;5052678;28;20025;-64
2023/07/20 09:30:10;;;;;;;3.60;2.88;;;;;;;;;;5048142;28;20396;-62
2023/07/20 09:32:40;;;;;;;3.33;2.83;;;;;;;;;;5050799;28;20036;-61
2023/07/20 09:35:06;;;;;;;3.88;2.50;;;;;;;;;;5053342;28;20029;-63
2023/07/20 09:37:33;;;;;;;1.65;1.52;;;;;;;;;;5045916;28;20074;-62
2023/07/20 09:39:59;;;;;;;1.35;1.25;;;;;;;;;;5052764;28;20029;-62
2023/07/20 09:42:26;;;;;;;1.77;1.55;;;;;;;;;;5052638;28;20531;-65
2023/07/20 09:44:53;;;;;;;2.10;1.52;;;;;;;;;;5056475;28;20071;-62
2023/07/20 09:47:23;;;;;;;2.92;1.73;;;;;;;;;;5059662;28;20389;-62
2023/07/20 09:49:49;;;;;;;3.50;2.00;;;;;;;;;;5058822;28;20040;-63
2023/07/20 09:52:15;;;;;;;3.03;2.20;;;;;;;;;;5060087;28;20033;-63
2023/07/20 09:54:45;;;;;;;2.40;1.83;;;;;;;;;;5054494;28;20044;-62
2023/07/20 09:57:13;;;;;;;2.65;2.05;;;;;;;;;;5072798;28;20040;-62
2023/07/20 09:59:39;;;;;;;2.30;1.95;;;;;;;;;;5074051;28;20033;-62
2023/07/20 10:02:16;;;;;;;2.35;1.98;;;;;;;;;;5055067;28;20029;-62
2023/07/20 10:04:43;;;;;;;2.00;1.80;;;;;;;;;;5046369;28;20071;-62
2023/07/20 10:07:14;;;;;;;2.13;1.90;;;;;;;;;;5050454;28;20071;-63
2023/07/20 10:09:40;;;;;;;2.72;2.10;;;;;;;;;;5048302;28;20039;-64
2023/07/20 10:12:08;;;;;;;2.03;1.83;;;;;;;;;;5050964;28;20036;-64
2023/07/20 10:14:38;;;;;;;5.40;1.85;;;;;;;;;;5054512;28;20037;-63
2023/07/20 10:17:06;;;;;;;2.70;1.58;;;;;;;;;;5052342;28;20556;-64
2023/07/20 10:19:44;;;;;;;2.53;1.25;;;;;;;;;;5051377;28;20033;-64
2023/07/20 10:22:36;;;;;;;2.00;1.50;;;;;;;;;;5048472;28;20036;-64
2023/07/20 10:25:04;;;;;;;1.45;1.33;;;;;;;;;;5047523;28;20044;-63
2023/07/20 10:27:30;;;;;;;1.90;1.70;;;;;;;;;;5061615;28;20047;-63
2023/07/20 10:29:58;;;;;;;2.78;1.70;;;;;;;;;;5054483;28;20029;-65
2023/07/20 10:32:24;;;;;;;1.70;1.60;;;;;;;;;;5039379;28;21112;-64
2023/07/20 10:34:51;;;;;;;1.83;1.50;;;;;;;;;;5045724;28;20474;-64
2023/07/20 10:37:46;;;;;;;2.17;1.40;;;;;;;;;;5052318;28;20087;-62
2023/07/20 10:40:37;;;;;;;1.95;1.50;;;;;;;;;;5059609;28;20022;-63
2023/07/20 10:43:07;;;;;;;1.33;1.20;;;;;;;;;;5031887;28;20065;-62
2023/07/20 10:45:52;;;;;;;2.85;1.52;;;;;;;;;;5038765;28;20040;-63
2023/07/20 10:48:22;;;;;;;1.67;1.40;;;;;;;;;;5051613;28;20037;-62
2023/07/20 10:51:14;;;;;;;3.50;1.75;;;;;;;;;;5050185;28;20029;-63
2023/07/20 10:53:40;;;;;;;5.90;1.80;;;;;;;;;;5031143;28;20516;-62
2023/07/20 10:56:20;;;;;;;1.80;1.70;;;;;;;;;;5042852;28;20041;-63
2023/07/20 10:58:45;;;;;;;1.60;1.50;;;;;;;;;;5050494;28;20043;-62
2023/07/20 11:01:16;;;;;;;5.07;1.52;;;;;;;;;;5040400;28;20025;-62
2023/07/20 11:03:41;;;;;;;1.67;1.50;;;;;;;;;;5030335;28;20073;-62
2023/07/20 11:06:25;;;;;;;1.60;1.45;;;;;;;;;;5056677;28;20063;-62
2023/07/20 11:09:16;;;;;;;2.67;1.38;;;;;;;;;;5060326;28;20031;-63
2023/07/20 11:11:47;;;;;;;1.40;1.20;;;;;;;;;;5030772;28;20045;-63
2023/07/20 11:14:26;;;;;;;1.70;1.30;;;;;;;;;;5036937;28;20033;-62
2023/07/20 11:16:52;;;;;;;1.50;1.20;;;;;;;;;;5051033;28;20049;-63
2023/07/20 11:19:24;;;;;;;2.13;1.20;;;;;;;;;;5050926;28;20110;-62
2023/07/20 11:21:51;;;;;;;1.92;1.17;;;;;;;;;;5061526;28;20036;-64
2023/07/20 11:24:17;;;;;;;1.70;1.10;;;;;;;;;;5068771;28;20060;-64
2023/07/20 11:26:48;;;;;;;1.38;1.20;;;;;;;;;;5038722;28;20123;-64
2023/07/20 11:29:17;;;;;;;1.63;1.10;;;;;;;;;;5032488;28;20030;-63
2023/07/20 11:31:43;;;;;;;1.85;1.10;;;;;;;;;;5050955;28;20282;-64
2023/07/20 11:34:14;;;;;;;1.15;1.00;;;;;;;;;;5050145;28;20386;-63
2023/07/20 11:36:41;;;;;;;;;;;;;;;;;;5041033;28;20029;-63
2023/07/20 11:39:10;;;;;;;1.30;1.20;;;;;;;;;;5051226;28;19912;-63
2023/07/20 11:41:37;;;;;;;1.47;1.10;;;;;;;;;;5044825;28;20033;-63
2023/07/20 11:44:07;;;;;;;1.15;1.05;;;;;;;;;;5047297;28;20079;-61
2023/07/20 11:46:34;;;;;;;0.90;0.90;;;;;;;;;;5050508;28;20068;-64
2023/07/20 11:49:00;;;;;;;1.30;1.02;;;;;;;;;;5050465;28;20036;-63
2023/07/20 11:51:32;;;;;;;0.90;0.90;;;;;;;;;;5049932;28;20129;-64
2023/07/20 11:53:58;;;;;;;1.20;1.05;;;;;;;;;;5052094;28;20033;-63
2023/07/20 11:56:25;;;;;;;1.10;1.00;;;;;;;;;;5049822;28;20098;-66
2023/07/20 11:58:54;;;;;;;1.48;1.02;;;;;;;;;;5050564;28;20108;-63
2023/07/20 12:01:20;;;;;;;1.10;1.00;;;;;;;;;;5050225;28;20131;-63
2023/07/20 12:03:48;;;;;;;1.45;0.90;;;;;;;;;;5049022;28;20052;-62
2023/07/20 12:06:13;;;;;;;1.25;0.93;;;;;;;;;;5054493;28;20470;-63
2023/07/20 12:08:43;;;;;;;1.48;1.10;;;;;;;;;;5046396;28;20030;-63
2023/07/20 12:11:08;;;;;;;0.90;0.77;;;;;;;;;;5059547;28;20362;-65
2023/07/20 12:13:44;;;;;;;1.25;1.15;;;;;;;;;;5049600;28;20166;-64
2023/07/20 12:16:14;;;;;;;1.15;1.00;;;;;;;;;;5050444;28;20068;-65
2023/07/20 12:18:43;;;;;;;;;;;;;;;;;;5064981;28;20039;-64
2023/07/20 12:21:09;;;;;;;1.02;1.00;;;;;;;;;;5057602;28;19916;-62
2023/07/20 12:23:38;;;;;;;1.17;1.02;;;;;;;;;;5049413;28;20033;-63
2023/07/20 12:26:05;;;;;;;2.35;1.08;;;;;;;;;;5050666;28;20409;-64
2023/07/20 12:28:31;;;;;;;1.33;0.90;;;;;;;;;;5048504;28;20464;-64
2023/07/20 12:30:56;;;;;;;1.42;0.80;;;;;;;;;;5054905;28;20114;-63
2023/07/20 12:33:22;;;;;;;2.90;1.00;;;;;;;;;;5053339;28;20049;-66
2023/07/20 12:35:48;;;;;;;1.02;0.93;;;;;;;;;;5053410;28;20493;-64
2023/07/20 12:38:13;;;;;;;1.20;1.10;;;;;;;;;;5053397;28;20055;-63
2023/07/20 12:40:40;;;;;;;1.02;0.93;;;;;;;;;;5051704;28;20067;-63
2023/07/20 12:43:07;;;;;;;1.17;1.00;;;;;;;;;;5053150;28;20028;-66
2023/07/20 12:45:32;;;;;;;1.17;0.90;;;;;;;;;;5051634;28;20032;-65
2023/07/20 12:47:58;;;;;;;1.27;1.10;;;;;;;;;;5053934;28;20120;-63
2023/07/20 12:50:23;;;;;;;1.70;1.00;;;;;;;;;;5052262;28;20468;-65
2023/07/20 12:52:48;;;;;;;1.98;0.93;;;;;;;;;;5053348;28;20083;-64
2023/07/20 12:55:14;;;;;;;1.30;1.10;;;;;;;;;;5053735;28;20502;-63
2023/07/20 12:57:41;;;;;;;1.13;1.02;;;;;;;;;;5053215;28;20029;-64
2023/07/20 13:00:09;;;;;;;1.58;1.20;;;;;;;;;;5050850;28;20458;-63
2023/07/20 13:02:35;;;;;;;1.23;1.10;;;;;;;;;;5052702;28;20037;-63
2023/07/20 13:05:01;;;;;;;1.00;1.00;;;;;;;;;;5051688;28;20040;-63
2023/07/20 13:07:31;;;;;;;1.90;1.00;;;;;;;;;;5051791;28;20041;-64
2023/07/20 13:09:59;;;;;;;1.02;1.02;;;;;;;;;;5053398;28;20025;-63
2023/07/20 13:12:24;;;;;;;1.17;1.00;;;;;;;;;;5051837;28;20061;-65
2023/07/20 13:14:50;;;;;;;1.23;1.00;;;;;;;;;;5057000;28;20056;-62
2023/07/20 13:17:15;;;;;;;1.10;1.00;;;;;;;;;;5053291;28;20064;-61
2023/07/20 13:19:41;;;;;;;0.85;0.85;;;;;;;;;;5052497;28;20029;-65
2023/07/20 13:22:06;;;;;;;2.25;1.20;;;;;;;;;;5053017;28;20519;-62
2023/07/20 13:24:31;;;;;;;1.00;1.00;;;;;;;;;;5053084;28;20032;-63
2023/07/20 13:26:57;;;;;;;1.38;1.08;;;;;;;;;;5062271;28;20040;-65
2023/07/20 13:29:23;;;;;;;1.83;1.27;;;;;;;;;;5070889;28;20454;-65
2023/07/20 13:31:49;;;;;;;1.10;1.00;;;;;;;;;;5053326;28;20390;-63
2023/07/20 13:34:14;;;;;;;1.80;1.00;;;;;;;;;;5053256;28;20025;-63
2023/07/20 13:36:40;;;;;;;0.98;0.90;;;;;;;;;;5050777;28;20032;-63
2023/07/20 13:39:06;;;;;;;1.98;1.17;;;;;;;;;;5052702;28;20029;-64
2023/07/20 13:41:32;;;;;;;1.20;1.10;;;;;;;;;;5050013;28;20033;-61
2023/07/20 13:43:57;;;;;;;1.02;0.90;;;;;;;;;;5051848;28;20060;-62
2023/07/20 13:46:23;;;;;;;1.40;1.20;;;;;;;;;;5052506;28;20033;-65
2023/07/20 13:48:48;;;;;;;1.85;1.10;;;;;;;;;;5052527;28;20021;-63
2023/07/20 13:51:14;;;;;;;1.00;1.00;;;;;;;;;;5051218;28;20033;-62
2023/07/20 13:53:40;;;;;;;1.42;1.08;;;;;;;;;;5050490;28;20033;-61
2023/07/20 13:56:06;;;;;;;1.10;1.10;;;;;;;;;;5051850;28;20501;-63
2023/07/20 13:58:32;;;;;;;1.02;1.00;;;;;;;;;;5051064;28;20024;-63
2023/07/20 14:00:58;;;;;;;2.60;1.10;;;;;;;;;;5049592;28;20040;-62
2023/07/20 14:03:23;;;;;;;1.10;1.00;;;;;;;;;;5052371;28;20115;-65
2023/07/20 14:05:50;;;;;;;1.23;0.95;;;;;;;;;;5049113;28;20036;-63
2023/07/20 14:08:15;;;;;;;2.55;1.00;;;;;;;;;;5053936;28;20032;-62
2023/07/20 14:10:41;;;;;;;1.98;1.15;;;;;;;;;;5061449;28;20113;-62
2023/07/20 14:13:07;;;;;;;1.08;1.02;;;;;;;;;;5071957;28;20166;-62
2023/07/20 14:15:34;;;;;;;1.40;1.25;;;;;;;;;;5071491;28;20024;-63
2023/07/20 14:18:00;;;;;;;1.25;1.00;;;;;;;;;;5062257;28;20082;-63
2023/07/20 14:20:25;;;;;;;2.28;1.10;;;;;;;;;;5070406;28;20064;-65
2023/07/20 14:22:51;;;;;;;2.00;1.10;;;;;;;;;;5055101;28;20485;-64
2023/07/20 14:25:16;;;;;;;3.05;1.00;;;;;;;;;;5052369;28;20033;-62
2023/07/20 14:27:41;;;;;;;1.20;1.10;;;;;;;;;;5050992;28;20076;-62
2023/07/20 14:30:08;;;;;;;2.35;1.05;;;;;;;;;;5054221;28;20029;-63
2023/07/20 14:32:34;;;;;;;2.20;1.27;;;;;;;;;;5050023;28;20409;-62
2023/07/20 14:34:59;;;;;;;1.30;1.10;;;;;;;;;;5052058;28;20079;-62
2023/07/20 14:37:25;;;;;;;1.48;1.08;;;;;;;;;;5051100;28;20029;-64
2023/07/20 14:39:50;;;;;;;2.40;1.10;;;;;;;;;;5052011;28;20386;-62